sensor_id;sensor_type;location;lat;lon;timestamp;P1;durP1;ratioP1;P2;durP2;ratioP2
33104;SDS011;19476;51.448;6.674;2022-12-29T00:01:40;0.52;;;0.30;;
33104;SDS011;19476;51.448;6.674;2022-12-29T00:04:06;1.08;;;0.30;;
33104;SDS011;19476;51.448;6.674;2022-12-29T00:06:32;0.50;;;0.38;;
33104;SDS011;19476;51.448;6.674;2022-12-29T00:08:58;1.20;;;0.40;;
33104;SDS011;19476;51.448;6.674;2022-12-29T00:11:25;0.60;;;0.40;;
33104;SDS011;19476;51.448;6.674;2022-12-29T00:13:52;0.68;;;0.30;;
33104;SDS011;19476;51.448;6.674;2022-12-29T00:16:37;0.95;;;0.55;;
33104;SDS011;19476;51.448;6.674;2022-12-29T00:19:05;0.55;;;0.40;;
33104;SDS011;19476;51.448;6.674;2022-12-29T00:21:31;2.17;;;0.55;;
33104;SDS011;19476;51.448;6.674;2022-12-29T00:24:17;0.73;;;0.47;;
33104;SDS011;19476;51.448;6.674;2022-12-29T00:26:58;0.80;;;0.50;;
33104;SDS011;19476;51.448;6.674;2022-12-29T00:29:48;0.60;;;0.30;;
33104;SDS011;19476;51.448;6.674;2022-12-29T00:32:33;0.90;;;0.40;;
33104;SDS011;19476;51.448;6.674;2022-12-29T00:35:20;0.40;;;0.20;;
33104;SDS011;19476;51.448;6.674;2022-12-29T00:38:01;1.10;;;0.40;;
33104;SDS011;19476;51.448;6.674;2022-12-29T00:40:48;0.55;;;0.30;;
33104;SDS011;19476;51.448;6.674;2022-12-29T00:43:33;0.60;;;0.22;;
33104;SDS011;19476;51.448;6.674;2022-12-29T00:46:17;0.43;;;0.30;;
33104;SDS011;19476;51.448;6.674;2022-12-29T00:48:43;0.30;;;0.17;;
33104;SDS011;19476;51.448;6.674;2022-12-29T00:51:28;1.10;;;0.30;;
33104;SDS011;19476;51.448;6.674;2022-12-29T00:53:54;0.93;;;0.38;;
33104;SDS011;19476;51.448;6.674;2022-12-29T00:56:19;0.63;;;0.20;;
33104;SDS011;19476;51.448;6.674;2022-12-29T00:58:45;0.77;;;0.30;;
33104;SDS011;19476;51.448;6.674;2022-12-29T01:01:11;0.25;;;0.20;;
33104;SDS011;19476;51.448;6.674;2022-12-29T01:03:37;0.88;;;0.43;;
33104;SDS011;19476;51.448;6.674;2022-12-29T01:06:04;0.60;;;0.30;;
33104;SDS011;19476;51.448;6.674;2022-12-29T01:08:33;1.38;;;0.20;;
33104;SDS011;19476;51.448;6.674;2022-12-29T01:11:00;0.40;;;0.20;;
33104;SDS011;19476;51.448;6.674;2022-12-29T01:13:29;0.47;;;0.30;;
33104;SDS011;19476;51.448;6.674;2022-12-29T01:15:56;0.40;;;0.30;;
33104;SDS011;19476;51.448;6.674;2022-12-29T01:18:22;0.73;;;0.20;;
33104;SDS011;19476;51.448;6.674;2022-12-29T01:20:49;0.40;;;0.28;;
33104;SDS011;19476;51.448;6.674;2022-12-29T01:23:15;1.20;;;0.30;;
33104;SDS011;19476;51.448;6.674;2022-12-29T01:25:41;0.60;;;0.20;;
33104;SDS011;19476;51.448;6.674;2022-12-29T01:28:07;0.70;;;0.35;;
33104;SDS011;19476;51.448;6.674;2022-12-29T01:30:36;0.17;;;0.10;;
33104;SDS011;19476;51.448;6.674;2022-12-29T01:33:02;1.23;;;0.20;;
33104;SDS011;19476;51.448;6.674;2022-12-29T01:35:28;0.70;;;0.30;;
33104;SDS011;19476;51.448;6.674;2022-12-29T01:37:54;0.47;;;0.15;;
33104;SDS011;19476;51.448;6.674;2022-12-29T01:40:20;0.52;;;0.20;;
33104;SDS011;19476;51.448;6.674;2022-12-29T01:42:45;0.20;;;0.10;;
33104;SDS011;19476;51.448;6.674;2022-12-29T01:45:12;0.30;;;0.10;;
33104;SDS011;19476;51.448;6.674;2022-12-29T01:47:41;0.55;;;0.25;;
33104;SDS011;19476;51.448;6.674;2022-12-29T01:50:24;0.77;;;0.30;;
33104;SDS011;19476;51.448;6.674;2022-12-29T01:52:56;0.60;;;0.30;;
33104;SDS011;19476;51.448;6.674;2022-12-29T01:55:27;1.17;;;0.20;;
33104;SDS011;19476;51.448;6.674;2022-12-29T01:57:56;0.93;;;0.55;;
33104;SDS011;19476;51.448;6.674;2022-12-29T02:00:26;0.63;;;0.20;;
33104;SDS011;19476;51.448;6.674;2022-12-29T02:02:52;0.38;;;0.20;;
33104;SDS011;19476;51.448;6.674;2022-12-29T02:05:39;2.40;;;0.35;;
33104;SDS011;19476;51.448;6.674;2022-12-29T02:08:18;0.43;;;0.30;;
33104;SDS011;19476;51.448;6.674;2022-12-29T02:10:47;0.40;;;0.20;;
33104;SDS011;19476;51.448;6.674;2022-12-29T02:13:16;2.83;;;0.45;;
33104;SDS011;19476;51.448;6.674;2022-12-29T02:15:47;1.83;;;0.20;;
33104;SDS011;19476;51.448;6.674;2022-12-29T02:40:39;0.50;;;0.25;;
33104;SDS011;19476;51.448;6.674;2022-12-29T02:46:16;1.25;;;0.30;;
33104;SDS011;19476;51.448;6.674;2022-12-29T02:48:59;1.05;;;0.22;;
33104;SDS011;19476;51.448;6.674;2022-12-29T02:51:32;1.23;;;0.30;;
33104;SDS011;19476;51.448;6.674;2022-12-29T02:54:19;0.80;;;0.30;;
33104;SDS011;19476;51.448;6.674;2022-12-29T02:59:45;1.95;;;0.57;;
33104;SDS011;19476;51.448;6.674;2022-12-29T03:05:03;1.33;;;0.40;;
33104;SDS011;19476;51.448;6.674;2022-12-29T03:07:51;0.80;;;0.40;;
33104;SDS011;19476;51.448;6.674;2022-12-29T03:13:29;0.95;;;0.32;;
33104;SDS011;19476;51.448;6.674;2022-12-29T03:22:16;1.38;;;0.50;;
33104;SDS011;19476;51.448;6.674;2022-12-29T03:24:47;0.43;;;0.22;;
33104;SDS011;19476;51.448;6.674;2022-12-29T03:27:19;0.88;;;0.30;;
33104;SDS011;19476;51.448;6.674;2022-12-29T03:29:52;1.55;;;0.28;;
33104;SDS011;19476;51.448;6.674;2022-12-29T03:32:28;0.55;;;0.30;;
33104;SDS011;19476;51.448;6.674;2022-12-29T03:34:57;2.92;;;0.68;;
33104;SDS011;19476;51.448;6.674;2022-12-29T03:37:26;0.50;;;0.30;;
33104;SDS011;19476;51.448;6.674;2022-12-29T03:39:56;0.80;;;0.35;;
33104;SDS011;19476;51.448;6.674;2022-12-29T03:42:23;0.60;;;0.32;;
33104;SDS011;19476;51.448;6.674;2022-12-29T03:44:53;1.80;;;0.50;;
33104;SDS011;19476;51.448;6.674;2022-12-29T03:47:21;1.35;;;0.40;;
33104;SDS011;19476;51.448;6.674;2022-12-29T03:49:47;1.08;;;0.40;;
33104;SDS011;19476;51.448;6.674;2022-12-29T03:52:14;2.72;;;0.50;;
33104;SDS011;19476;51.448;6.674;2022-12-29T03:54:39;4.10;;;0.30;;
33104;SDS011;19476;51.448;6.674;2022-12-29T03:57:05;1.77;;;0.38;;
33104;SDS011;19476;51.448;6.674;2022-12-29T03:59:31;1.02;;;0.25;;
33104;SDS011;19476;51.448;6.674;2022-12-29T04:01:57;1.27;;;0.30;;
33104;SDS011;19476;51.448;6.674;2022-12-29T04:04:23;1.73;;;0.20;;
33104;SDS011;19476;51.448;6.674;2022-12-29T04:06:48;1.67;;;0.20;;
33104;SDS011;19476;51.448;6.674;2022-12-29T04:09:14;0.65;;;0.50;;
33104;SDS011;19476;51.448;6.674;2022-12-29T04:11:40;0.65;;;0.30;;
33104;SDS011;19476;51.448;6.674;2022-12-29T04:14:05;0.38;;;0.20;;
33104;SDS011;19476;51.448;6.674;2022-12-29T04:16:31;0.40;;;0.30;;
33104;SDS011;19476;51.448;6.674;2022-12-29T04:19:00;0.85;;;0.20;;
33104;SDS011;19476;51.448;6.674;2022-12-29T04:21:27;0.30;;;0.20;;
33104;SDS011;19476;51.448;6.674;2022-12-29T04:23:52;0.75;;;0.30;;
33104;SDS011;19476;51.448;6.674;2022-12-29T04:26:18;0.80;;;0.30;;
33104;SDS011;19476;51.448;6.674;2022-12-29T04:28:44;0.82;;;0.38;;
33104;SDS011;19476;51.448;6.674;2022-12-29T04:31:10;1.20;;;0.20;;
33104;SDS011;19476;51.448;6.674;2022-12-29T04:33:36;1.23;;;0.40;;
33104;SDS011;19476;51.448;6.674;2022-12-29T04:36:02;1.48;;;0.40;;
33104;SDS011;19476;51.448;6.674;2022-12-29T04:38:27;1.27;;;0.30;;
33104;SDS011;19476;51.448;6.674;2022-12-29T04:40:53;1.58;;;0.28;;
33104;SDS011;19476;51.448;6.674;2022-12-29T04:43:19;1.08;;;0.20;;
33104;SDS011;19476;51.448;6.674;2022-12-29T04:45:46;0.63;;;0.30;;
33104;SDS011;19476;51.448;6.674;2022-12-29T04:48:13;0.63;;;0.30;;
33104;SDS011;19476;51.448;6.674;2022-12-29T04:50:39;0.52;;;0.28;;
33104;SDS011;19476;51.448;6.674;2022-12-29T04:53:06;0.77;;;0.35;;
33104;SDS011;19476;51.448;6.674;2022-12-29T04:55:32;2.28;;;0.30;;
33104;SDS011;19476;51.448;6.674;2022-12-29T04:57:59;1.80;;;0.40;;
33104;SDS011;19476;51.448;6.674;2022-12-29T05:00:24;0.57;;;0.30;;
33104;SDS011;19476;51.448;6.674;2022-12-29T05:02:50;0.52;;;0.30;;
33104;SDS011;19476;51.448;6.674;2022-12-29T05:05:16;1.08;;;0.30;;
33104;SDS011;19476;51.448;6.674;2022-12-29T05:07:42;0.75;;;0.20;;
33104;SDS011;19476;51.448;6.674;2022-12-29T05:10:08;0.88;;;0.47;;
33104;SDS011;19476;51.448;6.674;2022-12-29T05:12:35;1.88;;;0.30;;
33104;SDS011;19476;51.448;6.674;2022-12-29T05:15:02;0.25;;;0.10;;
33104;SDS011;19476;51.448;6.674;2022-12-29T05:17:29;0.55;;;0.20;;
33104;SDS011;19476;51.448;6.674;2022-12-29T05:19:55;0.30;;;0.20;;
33104;SDS011;19476;51.448;6.674;2022-12-29T05:22:21;1.80;;;0.47;;
33104;SDS011;19476;51.448;6.674;2022-12-29T05:24:47;1.35;;;0.30;;
33104;SDS011;19476;51.448;6.674;2022-12-29T05:27:13;1.30;;;0.40;;
33104;SDS011;19476;51.448;6.674;2022-12-29T05:29:39;2.70;;;0.30;;
33104;SDS011;19476;51.448;6.674;2022-12-29T05:32:05;1.38;;;0.30;;
33104;SDS011;19476;51.448;6.674;2022-12-29T05:34:31;1.45;;;0.47;;
33104;SDS011;19476;51.448;6.674;2022-12-29T05:36:57;2.90;;;0.52;;
33104;SDS011;19476;51.448;6.674;2022-12-29T05:39:22;0.50;;;0.30;;
33104;SDS011;19476;51.448;6.674;2022-12-29T05:41:48;0.93;;;0.22;;
33104;SDS011;19476;51.448;6.674;2022-12-29T05:44:14;3.90;;;0.57;;
33104;SDS011;19476;51.448;6.674;2022-12-29T05:46:40;0.35;;;0.20;;
33104;SDS011;19476;51.448;6.674;2022-12-29T05:49:06;1.80;;;0.40;;
33104;SDS011;19476;51.448;6.674;2022-12-29T05:51:32;0.55;;;0.10;;
33104;SDS011;19476;51.448;6.674;2022-12-29T05:53:58;1.65;;;0.38;;
33104;SDS011;19476;51.448;6.674;2022-12-29T05:56:23;0.63;;;0.17;;
33104;SDS011;19476;51.448;6.674;2022-12-29T05:58:49;1.13;;;0.38;;
33104;SDS011;19476;51.448;6.674;2022-12-29T06:01:15;2.05;;;0.40;;
33104;SDS011;19476;51.448;6.674;2022-12-29T06:03:41;2.10;;;0.40;;
33104;SDS011;19476;51.448;6.674;2022-12-29T06:06:07;1.17;;;0.30;;
33104;SDS011;19476;51.448;6.674;2022-12-29T06:08:33;1.42;;;0.30;;
33104;SDS011;19476;51.448;6.674;2022-12-29T06:10:59;0.93;;;0.40;;
33104;SDS011;19476;51.448;6.674;2022-12-29T06:13:25;3.05;;;0.50;;
33104;SDS011;19476;51.448;6.674;2022-12-29T06:15:51;0.93;;;0.30;;
33104;SDS011;19476;51.448;6.674;2022-12-29T06:18:16;1.50;;;0.30;;
33104;SDS011;19476;51.448;6.674;2022-12-29T06:20:42;1.48;;;0.52;;
33104;SDS011;19476;51.448;6.674;2022-12-29T06:23:08;1.73;;;0.40;;
33104;SDS011;19476;51.448;6.674;2022-12-29T06:25:34;1.10;;;0.35;;
33104;SDS011;19476;51.448;6.674;2022-12-29T06:28:01;1.35;;;0.40;;
33104;SDS011;19476;51.448;6.674;2022-12-29T06:30:27;1.35;;;0.20;;
33104;SDS011;19476;51.448;6.674;2022-12-29T06:32:53;2.80;;;0.55;;
33104;SDS011;19476;51.448;6.674;2022-12-29T06:35:19;0.73;;;0.30;;
33104;SDS011;19476;51.448;6.674;2022-12-29T06:37:47;1.50;;;0.40;;
33104;SDS011;19476;51.448;6.674;2022-12-29T06:40:14;0.85;;;0.22;;
33104;SDS011;19476;51.448;6.674;2022-12-29T06:42:40;1.05;;;0.25;;
33104;SDS011;19476;51.448;6.674;2022-12-29T06:45:06;2.15;;;0.50;;
33104;SDS011;19476;51.448;6.674;2022-12-29T06:47:32;0.85;;;0.35;;
33104;SDS011;19476;51.448;6.674;2022-12-29T06:49:59;2.47;;;0.50;;
33104;SDS011;19476;51.448;6.674;2022-12-29T06:52:25;2.92;;;0.40;;
33104;SDS011;19476;51.448;6.674;2022-12-29T06:54:53;1.55;;;0.30;;
33104;SDS011;19476;51.448;6.674;2022-12-29T06:57:19;2.60;;;0.60;;
33104;SDS011;19476;51.448;6.674;2022-12-29T06:59:46;1.83;;;0.38;;
33104;SDS011;19476;51.448;6.674;2022-12-29T07:02:12;0.65;;;0.20;;
33104;SDS011;19476;51.448;6.674;2022-12-29T07:04:44;1.23;;;0.40;;
33104;SDS011;19476;51.448;6.674;2022-12-29T07:07:10;2.25;;;0.30;;
33104;SDS011;19476;51.448;6.674;2022-12-29T07:09:35;2.85;;;0.30;;
33104;SDS011;19476;51.448;6.674;2022-12-29T07:12:01;2.05;;;0.40;;
33104;SDS011;19476;51.448;6.674;2022-12-29T07:14:28;0.73;;;0.28;;
33104;SDS011;19476;51.448;6.674;2022-12-29T07:16:54;0.85;;;0.20;;
33104;SDS011;19476;51.448;6.674;2022-12-29T07:19:19;3.47;;;0.40;;
33104;SDS011;19476;51.448;6.674;2022-12-29T07:21:45;1.27;;;0.20;;
33104;SDS011;19476;51.448;6.674;2022-12-29T07:24:11;1.95;;;0.52;;
33104;SDS011;19476;51.448;6.674;2022-12-29T07:26:37;1.55;;;0.43;;
33104;SDS011;19476;51.448;6.674;2022-12-29T07:29:03;2.55;;;0.60;;
33104;SDS011;19476;51.448;6.674;2022-12-29T07:31:29;2.17;;;0.40;;
33104;SDS011;19476;51.448;6.674;2022-12-29T07:33:55;2.17;;;0.47;;
33104;SDS011;19476;51.448;6.674;2022-12-29T07:36:21;3.35;;;0.40;;
33104;SDS011;19476;51.448;6.674;2022-12-29T07:38:47;1.00;;;0.40;;
33104;SDS011;19476;51.448;6.674;2022-12-29T07:41:12;2.63;;;0.40;;
33104;SDS011;19476;51.448;6.674;2022-12-29T07:43:38;2.83;;;0.43;;
33104;SDS011;19476;51.448;6.674;2022-12-29T07:46:04;3.08;;;0.50;;
33104;SDS011;19476;51.448;6.674;2022-12-29T07:48:30;3.88;;;0.60;;
33104;SDS011;19476;51.448;6.674;2022-12-29T07:50:58;2.28;;;0.50;;
33104;SDS011;19476;51.448;6.674;2022-12-29T07:53:24;2.22;;;0.40;;
33104;SDS011;19476;51.448;6.674;2022-12-29T07:55:50;2.92;;;1.23;;
33104;SDS011;19476;51.448;6.674;2022-12-29T07:58:15;2.92;;;0.43;;
33104;SDS011;19476;51.448;6.674;2022-12-29T08:00:41;1.33;;;0.40;;
33104;SDS011;19476;51.448;6.674;2022-12-29T08:03:07;2.22;;;0.55;;
33104;SDS011;19476;51.448;6.674;2022-12-29T08:05:33;2.15;;;0.32;;
33104;SDS011;19476;51.448;6.674;2022-12-29T08:07:59;3.50;;;0.63;;
33104;SDS011;19476;51.448;6.674;2022-12-29T08:10:25;1.75;;;0.40;;
33104;SDS011;19476;51.448;6.674;2022-12-29T08:12:51;5.18;;;0.60;;
33104;SDS011;19476;51.448;6.674;2022-12-29T08:15:17;3.08;;;0.43;;
33104;SDS011;19476;51.448;6.674;2022-12-29T08:17:43;2.22;;;0.40;;
33104;SDS011;19476;51.448;6.674;2022-12-29T08:20:08;2.22;;;0.45;;
33104;SDS011;19476;51.448;6.674;2022-12-29T08:22:34;3.13;;;0.40;;
33104;SDS011;19476;51.448;6.674;2022-12-29T08:25:00;3.97;;;0.45;;
33104;SDS011;19476;51.448;6.674;2022-12-29T08:27:27;8.40;;;1.05;;
33104;SDS011;19476;51.448;6.674;2022-12-29T08:29:53;3.08;;;0.70;;
33104;SDS011;19476;51.448;6.674;2022-12-29T08:32:18;2.40;;;0.60;;
33104;SDS011;19476;51.448;6.674;2022-12-29T08:34:44;2.20;;;0.70;;
33104;SDS011;19476;51.448;6.674;2022-12-29T08:37:10;2.65;;;0.47;;
33104;SDS011;19476;51.448;6.674;2022-12-29T08:39:36;1.98;;;0.40;;
33104;SDS011;19476;51.448;6.674;2022-12-29T08:42:02;3.63;;;0.60;;
33104;SDS011;19476;51.448;6.674;2022-12-29T08:44:28;3.20;;;0.50;;
33104;SDS011;19476;51.448;6.674;2022-12-29T08:46:54;1.92;;;0.50;;
33104;SDS011;19476;51.448;6.674;2022-12-29T08:49:19;2.55;;;0.50;;
33104;SDS011;19476;51.448;6.674;2022-12-29T08:51:45;2.08;;;0.90;;
33104;SDS011;19476;51.448;6.674;2022-12-29T08:54:11;3.42;;;0.82;;
33104;SDS011;19476;51.448;6.674;2022-12-29T08:56:37;2.15;;;0.50;;
33104;SDS011;19476;51.448;6.674;2022-12-29T08:59:03;2.90;;;0.50;;
33104;SDS011;19476;51.448;6.674;2022-12-29T09:01:29;2.45;;;0.50;;
33104;SDS011;19476;51.448;6.674;2022-12-29T09:03:55;3.67;;;0.55;;
33104;SDS011;19476;51.448;6.674;2022-12-29T09:06:21;1.40;;;0.30;;
33104;SDS011;19476;51.448;6.674;2022-12-29T09:08:47;4.22;;;0.80;;
33104;SDS011;19476;51.448;6.674;2022-12-29T09:11:16;2.58;;;0.80;;
33104;SDS011;19476;51.448;6.674;2022-12-29T09:13:47;2.45;;;0.57;;
33104;SDS011;19476;51.448;6.674;2022-12-29T09:16:14;3.03;;;0.63;;
33104;SDS011;19476;51.448;6.674;2022-12-29T09:18:40;4.88;;;0.77;;
33104;SDS011;19476;51.448;6.674;2022-12-29T09:21:06;3.67;;;0.77;;
33104;SDS011;19476;51.448;6.674;2022-12-29T09:23:32;4.18;;;1.10;;
33104;SDS011;19476;51.448;6.674;2022-12-29T09:25:58;2.65;;;0.55;;
33104;SDS011;19476;51.448;6.674;2022-12-29T09:28:24;3.80;;;0.40;;
33104;SDS011;19476;51.448;6.674;2022-12-29T09:30:50;5.88;;;0.88;;
33104;SDS011;19476;51.448;6.674;2022-12-29T09:33:17;3.38;;;0.52;;
33104;SDS011;19476;51.448;6.674;2022-12-29T09:35:44;4.60;;;0.60;;
33104;SDS011;19476;51.448;6.674;2022-12-29T09:38:14;3.47;;;0.60;;
33104;SDS011;19476;51.448;6.674;2022-12-29T09:40:41;1.70;;;0.47;;
33104;SDS011;19476;51.448;6.674;2022-12-29T09:48:39;3.70;;;0.65;;
33104;SDS011;19476;51.448;6.674;2022-12-29T09:51:10;4.38;;;0.75;;
33104;SDS011;19476;51.448;6.674;2022-12-29T09:53:42;3.35;;;0.73;;
33104;SDS011;19476;51.448;6.674;2022-12-29T09:56:19;2.25;;;0.50;;
33104;SDS011;19476;51.448;6.674;2022-12-29T09:58:49;6.32;;;1.48;;
33104;SDS011;19476;51.448;6.674;2022-12-29T10:01:32;3.80;;;0.77;;
33104;SDS011;19476;51.448;6.674;2022-12-29T10:04:05;4.90;;;0.80;;
33104;SDS011;19476;51.448;6.674;2022-12-29T10:15:12;4.25;;;0.70;;
33104;SDS011;19476;51.448;6.674;2022-12-29T10:23:04;4.43;;;0.70;;
33104;SDS011;19476;51.448;6.674;2022-12-29T10:25:37;5.10;;;0.98;;
33104;SDS011;19476;51.448;6.674;2022-12-29T10:28:06;2.03;;;0.50;;
33104;SDS011;19476;51.448;6.674;2022-12-29T10:30:42;3.13;;;0.50;;
33104;SDS011;19476;51.448;6.674;2022-12-29T10:33:11;2.80;;;0.77;;
33104;SDS011;19476;51.448;6.674;2022-12-29T10:35:43;6.25;;;1.10;;
33104;SDS011;19476;51.448;6.674;2022-12-29T10:40:43;3.97;;;0.73;;
33104;SDS011;19476;51.448;6.674;2022-12-29T10:43:33;5.82;;;0.70;;
33104;SDS011;19476;51.448;6.674;2022-12-29T10:46:11;3.22;;;0.70;;
33104;SDS011;19476;51.448;6.674;2022-12-29T10:48:41;6.40;;;0.80;;
33104;SDS011;19476;51.448;6.674;2022-12-29T10:51:10;6.85;;;0.88;;
33104;SDS011;19476;51.448;6.674;2022-12-29T10:53:47;2.50;;;0.68;;
33104;SDS011;19476;51.448;6.674;2022-12-29T10:56:42;6.95;;;1.00;;
33104;SDS011;19476;51.448;6.674;2022-12-29T11:01:51;4.60;;;0.93;;
33104;SDS011;19476;51.448;6.674;2022-12-29T11:07:40;4.50;;;1.02;;
33104;SDS011;19476;51.448;6.674;2022-12-29T11:10:17;5.38;;;1.42;;
33104;SDS011;19476;51.448;6.674;2022-12-29T11:12:56;2.70;;;0.70;;
33104;SDS011;19476;51.448;6.674;2022-12-29T11:15:24;5.30;;;0.65;;
33104;SDS011;19476;51.448;6.674;2022-12-29T11:17:57;5.38;;;0.80;;
33104;SDS011;19476;51.448;6.674;2022-12-29T11:20:37;5.07;;;1.33;;
33104;SDS011;19476;51.448;6.674;2022-12-29T11:23:04;3.97;;;0.77;;
33104;SDS011;19476;51.448;6.674;2022-12-29T11:25:54;2.60;;;0.70;;
33104;SDS011;19476;51.448;6.674;2022-12-29T11:28:33;3.17;;;0.70;;
33104;SDS011;19476;51.448;6.674;2022-12-29T11:31:00;4.32;;;0.65;;
33104;SDS011;19476;51.448;6.674;2022-12-29T11:33:28;4.95;;;1.08;;
33104;SDS011;19476;51.448;6.674;2022-12-29T11:35:59;5.30;;;0.90;;
33104;SDS011;19476;51.448;6.674;2022-12-29T11:38:36;4.03;;;0.80;;
33104;SDS011;19476;51.448;6.674;2022-12-29T11:43:37;3.88;;;0.70;;
33104;SDS011;19476;51.448;6.674;2022-12-29T11:46:05;5.13;;;1.20;;
33104;SDS011;19476;51.448;6.674;2022-12-29T11:48:38;4.30;;;0.73;;
33104;SDS011;19476;51.448;6.674;2022-12-29T11:51:05;4.60;;;0.75;;
33104;SDS011;19476;51.448;6.674;2022-12-29T11:56:32;6.75;;;0.95;;
33104;SDS011;19476;51.448;6.674;2022-12-29T12:01:55;5.65;;;1.23;;
33104;SDS011;19476;51.448;6.674;2022-12-29T12:04:23;4.15;;;0.70;;
33104;SDS011;19476;51.448;6.674;2022-12-29T12:06:58;2.80;;;0.65;;
33104;SDS011;19476;51.448;6.674;2022-12-29T12:09:29;6.20;;;0.88;;
33104;SDS011;19476;51.448;6.674;2022-12-29T12:12:00;4.20;;;0.93;;
33104;SDS011;19476;51.448;6.674;2022-12-29T12:14:37;3.38;;;1.10;;
33104;SDS011;19476;51.448;6.674;2022-12-29T12:22:22;4.72;;;0.60;;
33104;SDS011;19476;51.448;6.674;2022-12-29T12:25:03;4.82;;;0.80;;
33104;SDS011;19476;51.448;6.674;2022-12-29T12:27:47;3.13;;;0.60;;
33104;SDS011;19476;51.448;6.674;2022-12-29T12:30:18;5.72;;;1.08;;
33104;SDS011;19476;51.448;6.674;2022-12-29T12:41:10;2.92;;;0.65;;
33104;SDS011;19476;51.448;6.674;2022-12-29T13:00:55;5.80;;;0.93;;
33104;SDS011;19476;51.448;6.674;2022-12-29T13:06:13;5.38;;;0.82;;
33104;SDS011;19476;51.448;6.674;2022-12-29T13:14:57;3.28;;;0.65;;
33104;SDS011;19476;51.448;6.674;2022-12-29T13:17:53;4.40;;;1.10;;
33104;SDS011;19476;51.448;6.674;2022-12-29T13:20:41;3.15;;;1.00;;
33104;SDS011;19476;51.448;6.674;2022-12-29T13:31:20;6.03;;;0.80;;
33104;SDS011;19476;51.448;6.674;2022-12-29T13:37:04;5.10;;;1.08;;
33104;SDS011;19476;51.448;6.674;2022-12-29T13:39:49;4.45;;;0.68;;
33104;SDS011;19476;51.448;6.674;2022-12-29T13:42:20;3.42;;;0.98;;
33104;SDS011;19476;51.448;6.674;2022-12-29T13:44:50;5.95;;;0.63;;
33104;SDS011;19476;51.448;6.674;2022-12-29T13:47:36;3.63;;;1.10;;
33104;SDS011;19476;51.448;6.674;2022-12-29T13:50:14;4.07;;;0.70;;
33104;SDS011;19476;51.448;6.674;2022-12-29T13:52:45;4.65;;;0.93;;
33104;SDS011;19476;51.448;6.674;2022-12-29T13:55:33;2.30;;;0.50;;
33104;SDS011;19476;51.448;6.674;2022-12-29T13:58:12;4.07;;;0.50;;
33104;SDS011;19476;51.448;6.674;2022-12-29T14:03:56;5.10;;;0.77;;
33104;SDS011;19476;51.448;6.674;2022-12-29T14:06:29;3.20;;;0.75;;
33104;SDS011;19476;51.448;6.674;2022-12-29T14:08:58;4.27;;;0.83;;
33104;SDS011;19476;51.448;6.674;2022-12-29T14:11:31;5.80;;;1.00;;
33104;SDS011;19476;51.448;6.674;2022-12-29T14:14:21;2.35;;;0.70;;
33104;SDS011;19476;51.448;6.674;2022-12-29T14:16:47;4.28;;;1.17;;
33104;SDS011;19476;51.448;6.674;2022-12-29T14:19:19;5.57;;;1.10;;
33104;SDS011;19476;51.448;6.674;2022-12-29T14:21:57;4.23;;;0.67;;
33104;SDS011;19476;51.448;6.674;2022-12-29T14:32:34;1.10;;;0.43;;
33104;SDS011;19476;51.448;6.674;2022-12-29T14:34:49;6.13;;;0.88;;
33104;SDS011;19476;51.448;6.674;2022-12-29T14:37:35;3.22;;;0.50;;
33104;SDS011;19476;51.448;6.674;2022-12-29T14:42:44;2.50;;;0.50;;
33104;SDS011;19476;51.448;6.674;2022-12-29T14:52:50;1.65;;;0.35;;
33104;SDS011;19476;51.448;6.674;2022-12-29T14:58:05;1.90;;;0.40;;
33104;SDS011;19476;51.448;6.674;2022-12-29T15:00:49;3.95;;;1.10;;
33104;SDS011;19476;51.448;6.674;2022-12-29T15:06:07;5.20;;;1.05;;
33104;SDS011;19476;51.448;6.674;2022-12-29T15:08:37;3.13;;;0.43;;
33104;SDS011;19476;51.448;6.674;2022-12-29T15:14:30;4.60;;;0.85;;
33104;SDS011;19476;51.448;6.674;2022-12-29T15:17:22;1.55;;;0.32;;
33104;SDS011;19476;51.448;6.674;2022-12-29T15:20:00;4.95;;;0.82;;
33104;SDS011;19476;51.448;6.674;2022-12-29T15:22:52;3.40;;;0.63;;
33104;SDS011;19476;51.448;6.674;2022-12-29T15:25:36;4.38;;;0.52;;
33104;SDS011;19476;51.448;6.674;2022-12-29T15:28:19;3.08;;;0.70;;
33104;SDS011;19476;51.448;6.674;2022-12-29T15:30:51;3.22;;;1.00;;
33104;SDS011;19476;51.448;6.674;2022-12-29T15:33:18;4.80;;;1.10;;
33104;SDS011;19476;51.448;6.674;2022-12-29T15:35:49;5.35;;;0.95;;
33104;SDS011;19476;51.448;6.674;2022-12-29T15:38:20;5.88;;;0.73;;
33104;SDS011;19476;51.448;6.674;2022-12-29T15:40:53;3.25;;;0.70;;
33104;SDS011;19476;51.448;6.674;2022-12-29T15:43:24;2.15;;;0.35;;
33104;SDS011;19476;51.448;6.674;2022-12-29T15:46:02;3.75;;;0.68;;
33104;SDS011;19476;51.448;6.674;2022-12-29T15:48:28;3.20;;;0.60;;
33104;SDS011;19476;51.448;6.674;2022-12-29T15:50:55;4.07;;;0.65;;
33104;SDS011;19476;51.448;6.674;2022-12-29T15:53:24;3.88;;;1.00;;
33104;SDS011;19476;51.448;6.674;2022-12-29T15:55:57;3.22;;;0.75;;
33104;SDS011;19476;51.448;6.674;2022-12-29T15:58:27;4.25;;;0.80;;
33104;SDS011;19476;51.448;6.674;2022-12-29T16:00:58;3.33;;;0.80;;
33104;SDS011;19476;51.448;6.674;2022-12-29T16:03:26;6.53;;;1.00;;
33104;SDS011;19476;51.448;6.674;2022-12-29T16:05:55;3.55;;;0.60;;
33104;SDS011;19476;51.448;6.674;2022-12-29T16:08:35;2.13;;;0.70;;
33104;SDS011;19476;51.448;6.674;2022-12-29T16:11:05;3.40;;;0.63;;
33104;SDS011;19476;51.448;6.674;2022-12-29T16:13:42;2.50;;;0.60;;
33104;SDS011;19476;51.448;6.674;2022-12-29T16:16:20;4.25;;;0.80;;
33104;SDS011;19476;51.448;6.674;2022-12-29T16:18:57;4.15;;;0.90;;
33104;SDS011;19476;51.448;6.674;2022-12-29T16:21:30;3.05;;;0.85;;
33104;SDS011;19476;51.448;6.674;2022-12-29T16:24:00;9.20;;;1.13;;
33104;SDS011;19476;51.448;6.674;2022-12-29T16:26:31;4.57;;;0.95;;
33104;SDS011;19476;51.448;6.674;2022-12-29T16:28:58;4.57;;;1.05;;
33104;SDS011;19476;51.448;6.674;2022-12-29T16:31:34;4.47;;;1.02;;
33104;SDS011;19476;51.448;6.674;2022-12-29T16:34:46;4.20;;;0.82;;
33104;SDS011;19476;51.448;6.674;2022-12-29T16:39:27;3.30;;;0.85;;
33104;SDS011;19476;51.448;6.674;2022-12-29T16:41:54;5.60;;;0.88;;
33104;SDS011;19476;51.448;6.674;2022-12-29T16:44:21;2.75;;;0.70;;
33104;SDS011;19476;51.448;6.674;2022-12-29T16:47:02;3.80;;;0.70;;
33104;SDS011;19476;51.448;6.674;2022-12-29T16:49:33;2.83;;;0.38;;
33104;SDS011;19476;51.448;6.674;2022-12-29T16:52:00;2.03;;;0.40;;
33104;SDS011;19476;51.448;6.674;2022-12-29T16:57:00;1.10;;;0.40;;
33104;SDS011;19476;51.448;6.674;2022-12-29T16:59:33;1.00;;;0.30;;
33104;SDS011;19476;51.448;6.674;2022-12-29T17:02:05;3.08;;;0.70;;
33104;SDS011;19476;51.448;6.674;2022-12-29T17:04:41;1.45;;;0.43;;
33104;SDS011;19476;51.448;6.674;2022-12-29T17:07:17;2.25;;;0.40;;
33104;SDS011;19476;51.448;6.674;2022-12-29T17:09:45;0.77;;;0.25;;
33104;SDS011;19476;51.448;6.674;2022-12-29T17:12:14;1.75;;;0.43;;
33104;SDS011;19476;51.448;6.674;2022-12-29T17:17:24;0.50;;;0.30;;
33104;SDS011;19476;51.448;6.674;2022-12-29T17:19:58;1.02;;;0.30;;
33104;SDS011;19476;51.448;6.674;2022-12-29T17:22:28;2.15;;;0.30;;
33104;SDS011;19476;51.448;6.674;2022-12-29T17:24:55;1.23;;;0.30;;
33104;SDS011;19476;51.448;6.674;2022-12-29T17:27:33;1.95;;;0.40;;
33104;SDS011;19476;51.448;6.674;2022-12-29T17:30:05;1.75;;;0.40;;
33104;SDS011;19476;51.448;6.674;2022-12-29T17:32:43;1.53;;;0.40;;
33104;SDS011;19476;51.448;6.674;2022-12-29T17:35:16;2.47;;;0.52;;
33104;SDS011;19476;51.448;6.674;2022-12-29T17:37:43;4.85;;;0.40;;
33104;SDS011;19476;51.448;6.674;2022-12-29T17:40:13;0.73;;;0.22;;
33104;SDS011;19476;51.448;6.674;2022-12-29T17:42:46;2.55;;;0.55;;
33104;SDS011;19476;51.448;6.674;2022-12-29T17:45:34;1.33;;;0.30;;
33104;SDS011;19476;51.448;6.674;2022-12-29T17:47:59;1.13;;;0.40;;
33104;SDS011;19476;51.448;6.674;2022-12-29T17:50:26;2.05;;;0.45;;
33104;SDS011;19476;51.448;6.674;2022-12-29T17:52:56;1.85;;;0.30;;